sensor_id;sensor_type;location;lat;lon;timestamp;P1;durP1;ratioP1;P2;durP2;ratioP2
32780;SDS011;19136;47.032;15.502;2023-05-10T15:54:52;6.40;;;4.20;;
32780;SDS011;19136;47.032;15.502;2023-05-10T15:57:19;6.43;;;4.00;;
32780;SDS011;19136;47.032;15.502;2023-05-10T15:59:44;9.13;;;5.25;;
32780;SDS011;19136;47.032;15.502;2023-05-10T16:02:10;7.43;;;5.03;;
32780;SDS011;19136;47.032;15.502;2023-05-10T16:04:36;5.13;;;3.80;;
32780;SDS011;19136;47.032;15.502;2023-05-10T16:07:03;4.10;;;3.33;;
32780;SDS011;19136;47.032;15.502;2023-05-10T16:09:44;6.60;;;3.42;;
32780;SDS011;19136;47.032;15.502;2023-05-10T16:12:16;9.57;;;3.80;;
32780;SDS011;19136;47.032;15.502;2023-05-10T16:14:42;9.13;;;3.50;;
32780;SDS011;19136;47.032;15.502;2023-05-10T16:17:08;5.28;;;3.83;;
32780;SDS011;19136;47.032;15.502;2023-05-10T16:19:34;6.30;;;3.70;;
32780;SDS011;19136;47.032;15.502;2023-05-10T16:22:00;6.53;;;3.40;;
32780;SDS011;19136;47.032;15.502;2023-05-10T16:24:26;6.18;;;3.45;;
32780;SDS011;19136;47.032;15.502;2023-05-10T16:26:54;4.75;;;3.20;;
32780;SDS011;19136;47.032;15.502;2023-05-10T16:29:23;6.00;;;3.40;;
32780;SDS011;19136;47.032;15.502;2023-05-10T16:31:53;6.60;;;3.25;;
32780;SDS011;19136;47.032;15.502;2023-05-10T16:34:20;6.53;;;4.50;;
32780;SDS011;19136;47.032;15.502;2023-05-10T16:36:49;12.10;;;4.63;;
32780;SDS011;19136;47.032;15.502;2023-05-10T16:39:16;5.55;;;3.25;;
32780;SDS011;19136;47.032;15.502;2023-05-10T16:41:45;6.30;;;3.03;;
32780;SDS011;19136;47.032;15.502;2023-05-10T16:44:15;7.40;;;3.00;;
32780;SDS011;19136;47.032;15.502;2023-05-10T16:46:42;4.35;;;3.05;;
32780;SDS011;19136;47.032;15.502;2023-05-10T16:49:18;4.43;;;2.92;;
32780;SDS011;19136;47.032;15.502;2023-05-10T16:51:45;7.60;;;3.35;;
32780;SDS011;19136;47.032;15.502;2023-05-10T16:54:16;4.32;;;3.00;;
32780;SDS011;19136;47.032;15.502;2023-05-10T16:56:43;9.18;;;3.20;;
32780;SDS011;19136;47.032;15.502;2023-05-10T16:59:10;6.97;;;3.28;;
32780;SDS011;19136;47.032;15.502;2023-05-10T17:01:36;5.95;;;3.78;;
32780;SDS011;19136;47.032;15.502;2023-05-10T17:04:02;5.15;;;3.00;;
32780;SDS011;19136;47.032;15.502;2023-05-10T17:06:28;10.18;;;3.40;;
32780;SDS011;19136;47.032;15.502;2023-05-10T17:08:57;4.60;;;3.38;;
32780;SDS011;19136;47.032;15.502;2023-05-10T17:11:24;9.63;;;3.92;;
32780;SDS011;19136;47.032;15.502;2023-05-10T17:13:51;8.80;;;4.22;;
32780;SDS011;19136;47.032;15.502;2023-05-10T17:16:17;5.57;;;4.00;;
32780;SDS011;19136;47.032;15.502;2023-05-10T17:18:46;4.85;;;3.20;;
32780;SDS011;19136;47.032;15.502;2023-05-10T17:21:12;5.88;;;3.60;;
32780;SDS011;19136;47.032;15.502;2023-05-10T17:23:38;7.85;;;3.30;;
32780;SDS011;19136;47.032;15.502;2023-05-10T17:26:05;5.68;;;3.17;;
32780;SDS011;19136;47.032;15.502;2023-05-10T17:28:31;6.40;;;3.83;;
32780;SDS011;19136;47.032;15.502;2023-05-10T17:30:57;7.90;;;4.38;;
32780;SDS011;19136;47.032;15.502;2023-05-10T17:33:24;5.50;;;3.65;;
32780;SDS011;19136;47.032;15.502;2023-05-10T17:35:53;7.30;;;4.03;;
32780;SDS011;19136;47.032;15.502;2023-05-10T17:38:20;6.00;;;3.78;;
32780;SDS011;19136;47.032;15.502;2023-05-10T17:40:46;8.75;;;4.65;;
32780;SDS011;19136;47.032;15.502;2023-05-10T17:43:12;9.05;;;5.93;;
32780;SDS011;19136;47.032;15.502;2023-05-10T17:45:37;13.38;;;5.68;;
32780;SDS011;19136;47.032;15.502;2023-05-10T17:48:03;5.95;;;3.80;;
32780;SDS011;19136;47.032;15.502;2023-05-10T17:50:29;7.68;;;3.65;;
32780;SDS011;19136;47.032;15.502;2023-05-10T17:52:56;6.25;;;3.95;;
32780;SDS011;19136;47.032;15.502;2023-05-10T17:55:21;5.35;;;3.60;;
32780;SDS011;19136;47.032;15.502;2023-05-10T17:57:47;9.43;;;4.00;;
32780;SDS011;19136;47.032;15.502;2023-05-10T18:00:13;4.38;;;3.47;;
32780;SDS011;19136;47.032;15.502;2023-05-10T18:02:39;5.85;;;3.33;;
32780;SDS011;19136;47.032;15.502;2023-05-10T18:05:05;8.23;;;4.18;;
32780;SDS011;19136;47.032;15.502;2023-05-10T18:07:31;6.25;;;4.65;;
32780;SDS011;19136;47.032;15.502;2023-05-10T18:09:57;6.70;;;4.32;;
32780;SDS011;19136;47.032;15.502;2023-05-10T18:12:23;6.85;;;3.70;;
32780;SDS011;19136;47.032;15.502;2023-05-10T18:14:49;8.98;;;3.80;;
32780;SDS011;19136;47.032;15.502;2023-05-10T18:17:15;7.13;;;3.53;;
32780;SDS011;19136;47.032;15.502;2023-05-10T18:19:40;7.55;;;4.03;;
32780;SDS011;19136;47.032;15.502;2023-05-10T18:22:06;6.03;;;3.28;;
32780;SDS011;19136;47.032;15.502;2023-05-10T18:24:32;5.35;;;3.72;;
32780;SDS011;19136;47.032;15.502;2023-05-10T18:26:58;10.60;;;3.70;;
32780;SDS011;19136;47.032;15.502;2023-05-10T18:29:24;10.32;;;4.15;;
32780;SDS011;19136;47.032;15.502;2023-05-10T18:31:51;6.50;;;4.25;;
32780;SDS011;19136;47.032;15.502;2023-05-10T18:34:16;8.70;;;4.05;;
32780;SDS011;19136;47.032;15.502;2023-05-10T18:36:43;9.05;;;4.03;;
32780;SDS011;19136;47.032;15.502;2023-05-10T18:39:09;5.70;;;3.92;;
32780;SDS011;19136;47.032;15.502;2023-05-10T18:41:36;7.05;;;4.13;;
32780;SDS011;19136;47.032;15.502;2023-05-10T18:44:01;5.85;;;4.18;;
32780;SDS011;19136;47.032;15.502;2023-05-10T18:46:27;5.25;;;4.10;;
32780;SDS011;19136;47.032;15.502;2023-05-10T18:48:54;9.65;;;4.40;;
32780;SDS011;19136;47.032;15.502;2023-05-10T18:51:20;10.70;;;4.50;;
32780;SDS011;19136;47.032;15.502;2023-05-10T18:53:47;10.25;;;4.72;;
32780;SDS011;19136;47.032;15.502;2023-05-10T18:56:14;8.77;;;4.65;;
32780;SDS011;19136;47.032;15.502;2023-05-10T18:58:40;5.28;;;4.38;;
32780;SDS011;19136;47.032;15.502;2023-05-10T19:01:06;6.55;;;4.50;;
32780;SDS011;19136;47.032;15.502;2023-05-10T19:03:33;6.75;;;4.75;;
32780;SDS011;19136;47.032;15.502;2023-05-10T19:05:59;8.60;;;4.75;;
32780;SDS011;19136;47.032;15.502;2023-05-10T19:08:29;6.55;;;4.80;;
32780;SDS011;19136;47.032;15.502;2023-05-10T19:10:55;10.13;;;4.95;;
32780;SDS011;19136;47.032;15.502;2023-05-10T19:13:21;8.73;;;4.72;;
32780;SDS011;19136;47.032;15.502;2023-05-10T19:15:58;6.43;;;4.72;;
32780;SDS011;19136;47.032;15.502;2023-05-10T19:18:26;9.25;;;5.15;;
32780;SDS011;19136;47.032;15.502;2023-05-10T19:20:53;9.80;;;5.00;;
32780;SDS011;19136;47.032;15.502;2023-05-10T19:23:20;15.80;;;5.53;;
32780;SDS011;19136;47.032;15.502;2023-05-10T19:25:47;13.73;;;4.93;;
32780;SDS011;19136;47.032;15.502;2023-05-10T19:28:13;11.70;;;5.20;;
32780;SDS011;19136;47.032;15.502;2023-05-10T19:30:39;10.48;;;5.18;;
32780;SDS011;19136;47.032;15.502;2023-05-10T19:33:05;7.10;;;4.93;;
32780;SDS011;19136;47.032;15.502;2023-05-10T19:35:31;7.55;;;5.20;;
32780;SDS011;19136;47.032;15.502;2023-05-10T19:37:57;7.85;;;5.45;;
32780;SDS011;19136;47.032;15.502;2023-05-10T19:40:22;12.18;;;5.93;;
32780;SDS011;19136;47.032;15.502;2023-05-10T19:42:48;9.75;;;5.72;;
32780;SDS011;19136;47.032;15.502;2023-05-10T19:45:14;13.00;;;6.22;;
32780;SDS011;19136;47.032;15.502;2023-05-10T19:47:39;11.32;;;6.35;;
32780;SDS011;19136;47.032;15.502;2023-05-10T19:50:06;12.30;;;6.45;;
32780;SDS011;19136;47.032;15.502;2023-05-10T19:52:32;15.50;;;6.90;;
32780;SDS011;19136;47.032;15.502;2023-05-10T19:54:58;10.63;;;6.50;;
32780;SDS011;19136;47.032;15.502;2023-05-10T19:57:24;11.80;;;6.57;;
32780;SDS011;19136;47.032;15.502;2023-05-10T19:59:50;8.35;;;6.18;;
32780;SDS011;19136;47.032;15.502;2023-05-10T20:02:15;11.25;;;5.82;;
32780;SDS011;19136;47.032;15.502;2023-05-10T20:04:41;8.50;;;5.93;;
32780;SDS011;19136;47.032;15.502;2023-05-10T20:07:07;10.55;;;5.55;;
32780;SDS011;19136;47.032;15.502;2023-05-10T20:09:32;16.08;;;6.10;;
32780;SDS011;19136;47.032;15.502;2023-05-10T20:11:58;8.35;;;5.55;;
32780;SDS011;19136;47.032;15.502;2023-05-10T20:14:24;9.98;;;5.57;;
32780;SDS011;19136;47.032;15.502;2023-05-10T20:16:50;9.55;;;6.10;;
32780;SDS011;19136;47.032;15.502;2023-05-10T20:19:15;9.35;;;5.95;;
32780;SDS011;19136;47.032;15.502;2023-05-10T20:21:41;11.68;;;5.70;;
32780;SDS011;19136;47.032;15.502;2023-05-10T20:24:07;9.88;;;5.68;;
32780;SDS011;19136;47.032;15.502;2023-05-10T20:26:33;9.20;;;6.10;;
32780;SDS011;19136;47.032;15.502;2023-05-10T20:28:59;9.50;;;5.55;;
32780;SDS011;19136;47.032;15.502;2023-05-10T20:31:25;11.00;;;5.53;;
32780;SDS011;19136;47.032;15.502;2023-05-10T20:33:51;11.25;;;5.72;;
32780;SDS011;19136;47.032;15.502;2023-05-10T20:36:17;7.57;;;5.32;;
32780;SDS011;19136;47.032;15.502;2023-05-10T20:38:42;8.50;;;6.45;;
32780;SDS011;19136;47.032;15.502;2023-05-10T20:41:08;9.45;;;5.78;;
32780;SDS011;19136;47.032;15.502;2023-05-10T20:43:34;8.20;;;5.93;;
32780;SDS011;19136;47.032;15.502;2023-05-10T20:45:59;8.68;;;5.80;;
32780;SDS011;19136;47.032;15.502;2023-05-10T20:48:32;8.73;;;5.60;;
32780;SDS011;19136;47.032;15.502;2023-05-10T20:50:59;9.15;;;6.07;;
32780;SDS011;19136;47.032;15.502;2023-05-10T20:53:25;14.88;;;5.85;;
32780;SDS011;19136;47.032;15.502;2023-05-10T20:55:51;16.27;;;6.32;;
32780;SDS011;19136;47.032;15.502;2023-05-10T20:58:16;12.30;;;6.72;;
32780;SDS011;19136;47.032;15.502;2023-05-10T21:00:42;10.90;;;6.55;;
32780;SDS011;19136;47.032;15.502;2023-05-10T21:03:08;11.40;;;6.28;;
32780;SDS011;19136;47.032;15.502;2023-05-10T21:05:33;11.30;;;6.18;;
32780;SDS011;19136;47.032;15.502;2023-05-10T21:08:00;14.95;;;6.15;;
32780;SDS011;19136;47.032;15.502;2023-05-10T21:10:26;11.77;;;6.40;;
32780;SDS011;19136;47.032;15.502;2023-05-10T21:12:53;11.02;;;6.60;;
32780;SDS011;19136;47.032;15.502;2023-05-10T21:15:19;12.27;;;6.53;;
32780;SDS011;19136;47.032;15.502;2023-05-10T21:17:46;9.75;;;6.60;;
32780;SDS011;19136;47.032;15.502;2023-05-10T21:20:12;11.43;;;5.80;;
32780;SDS011;19136;47.032;15.502;2023-05-10T21:22:38;11.40;;;6.57;;
32780;SDS011;19136;47.032;15.502;2023-05-10T21:25:03;10.75;;;7.13;;
32780;SDS011;19136;47.032;15.502;2023-05-10T21:27:29;10.93;;;6.90;;
32780;SDS011;19136;47.032;15.502;2023-05-10T21:29:55;11.73;;;6.93;;
32780;SDS011;19136;47.032;15.502;2023-05-10T21:32:21;12.65;;;6.63;;
32780;SDS011;19136;47.032;15.502;2023-05-10T21:34:46;9.63;;;6.80;;
32780;SDS011;19136;47.032;15.502;2023-05-10T21:37:12;10.82;;;6.47;;
32780;SDS011;19136;47.032;15.502;2023-05-10T21:39:39;11.27;;;6.68;;
32780;SDS011;19136;47.032;15.502;2023-05-10T21:42:04;12.57;;;6.70;;
32780;SDS011;19136;47.032;15.502;2023-05-10T21:44:35;9.60;;;6.70;;
32780;SDS011;19136;47.032;15.502;2023-05-10T21:47:03;12.48;;;6.75;;
32780;SDS011;19136;47.032;15.502;2023-05-10T21:49:30;12.65;;;7.13;;
32780;SDS011;19136;47.032;15.502;2023-05-10T21:51:55;9.52;;;6.70;;
32780;SDS011;19136;47.032;15.502;2023-05-10T21:54:21;11.05;;;6.63;;
32780;SDS011;19136;47.032;15.502;2023-05-10T21:56:46;12.43;;;7.72;;
32780;SDS011;19136;47.032;15.502;2023-05-10T21:59:13;11.65;;;7.18;;
32780;SDS011;19136;47.032;15.502;2023-05-10T22:01:39;13.43;;;6.90;;
32780;SDS011;19136;47.032;15.502;2023-05-10T22:04:08;14.85;;;7.70;;
32780;SDS011;19136;47.032;15.502;2023-05-10T22:06:34;12.45;;;7.57;;
32780;SDS011;19136;47.032;15.502;2023-05-10T22:09:00;12.25;;;7.00;;
32780;SDS011;19136;47.032;15.502;2023-05-10T22:11:25;10.90;;;7.53;;
32780;SDS011;19136;47.032;15.502;2023-05-10T22:13:51;16.88;;;7.82;;
32780;SDS011;19136;47.032;15.502;2023-05-10T22:16:17;10.70;;;7.07;;
32780;SDS011;19136;47.032;15.502;2023-05-10T22:18:43;13.57;;;7.13;;
32780;SDS011;19136;47.032;15.502;2023-05-10T22:21:08;10.98;;;7.32;;
32780;SDS011;19136;47.032;15.502;2023-05-10T22:23:34;12.40;;;7.65;;
32780;SDS011;19136;47.032;15.502;2023-05-10T22:26:00;12.48;;;6.63;;
32780;SDS011;19136;47.032;15.502;2023-05-10T22:28:27;11.07;;;6.68;;
32780;SDS011;19136;47.032;15.502;2023-05-10T22:30:53;10.48;;;7.13;;
32780;SDS011;19136;47.032;15.502;2023-05-10T22:33:18;13.75;;;7.28;;
32780;SDS011;19136;47.032;15.502;2023-05-10T22:35:44;12.02;;;7.50;;
32780;SDS011;19136;47.032;15.502;2023-05-10T22:38:09;11.48;;;8.25;;
32780;SDS011;19136;47.032;15.502;2023-05-10T22:40:35;10.65;;;8.05;;
32780;SDS011;19136;47.032;15.502;2023-05-10T22:43:01;10.52;;;8.20;;
32780;SDS011;19136;47.032;15.502;2023-05-10T22:45:26;17.65;;;8.07;;
32780;SDS011;19136;47.032;15.502;2023-05-10T22:47:52;9.98;;;7.95;;
32780;SDS011;19136;47.032;15.502;2023-05-10T22:50:18;10.50;;;7.90;;
32780;SDS011;19136;47.032;15.502;2023-05-10T22:52:44;10.27;;;7.82;;
32780;SDS011;19136;47.032;15.502;2023-05-10T22:55:10;13.00;;;8.10;;
32780;SDS011;19136;47.032;15.502;2023-05-10T22:57:35;12.23;;;7.95;;
32780;SDS011;19136;47.032;15.502;2023-05-10T23:00:01;12.15;;;8.00;;
32780;SDS011;19136;47.032;15.502;2023-05-10T23:02:28;16.08;;;7.55;;
32780;SDS011;19136;47.032;15.502;2023-05-10T23:04:54;12.77;;;7.95;;
32780;SDS011;19136;47.032;15.502;2023-05-10T23:07:20;12.38;;;8.30;;
32780;SDS011;19136;47.032;15.502;2023-05-10T23:09:45;12.77;;;8.82;;
32780;SDS011;19136;47.032;15.502;2023-05-10T23:12:11;12.18;;;8.68;;
32780;SDS011;19136;47.032;15.502;2023-05-10T23:14:36;10.75;;;8.20;;
32780;SDS011;19136;47.032;15.502;2023-05-10T23:17:02;11.45;;;9.32;;
32780;SDS011;19136;47.032;15.502;2023-05-10T23:19:28;13.73;;;8.65;;
32780;SDS011;19136;47.032;15.502;2023-05-10T23:21:53;11.73;;;7.68;;
32780;SDS011;19136;47.032;15.502;2023-05-10T23:24:19;13.68;;;7.82;;
32780;SDS011;19136;47.032;15.502;2023-05-10T23:26:44;11.18;;;8.32;;
32780;SDS011;19136;47.032;15.502;2023-05-10T23:29:11;13.43;;;8.80;;
32780;SDS011;19136;47.032;15.502;2023-05-10T23:31:37;10.75;;;8.90;;
32780;SDS011;19136;47.032;15.502;2023-05-10T23:34:05;11.77;;;8.57;;
32780;SDS011;19136;47.032;15.502;2023-05-10T23:36:30;10.50;;;8.30;;
32780;SDS011;19136;47.032;15.502;2023-05-10T23:38:57;11.63;;;8.88;;
32780;SDS011;19136;47.032;15.502;2023-05-10T23:41:23;10.48;;;8.38;;
32780;SDS011;19136;47.032;15.502;2023-05-10T23:43:50;11.35;;;8.48;;
32780;SDS011;19136;47.032;15.502;2023-05-10T23:46:16;13.48;;;8.57;;
32780;SDS011;19136;47.032;15.502;2023-05-10T23:48:41;14.90;;;8.30;;
32780;SDS011;19136;47.032;15.502;2023-05-10T23:51:07;10.38;;;8.40;;
32780;SDS011;19136;47.032;15.502;2023-05-10T23:53:33;12.32;;;8.80;;
32780;SDS011;19136;47.032;15.502;2023-05-10T23:55:58;11.15;;;8.60;;
32780;SDS011;19136;47.032;15.502;2023-05-10T23:58:24;13.90;;;9.00;;
